sensor_id;sensor_type;location;lat;lon;timestamp;P1;durP1;ratioP1;P2;durP2;ratioP2
26040;SDS011;13816;53.628;9.950;2023-06-22T00:00:17;11.33;;;4.90;;
26040;SDS011;13816;53.628;9.950;2023-06-22T00:02:45;5.87;;;3.83;;
26040;SDS011;13816;53.628;9.950;2023-06-22T00:05:12;5.13;;;3.53;;
26040;SDS011;13816;53.628;9.950;2023-06-22T00:07:40;6.60;;;4.30;;
26040;SDS011;13816;53.628;9.950;2023-06-22T00:10:07;4.73;;;3.90;;
26040;SDS011;13816;53.628;9.950;2023-06-22T00:12:35;6.43;;;4.33;;
26040;SDS011;13816;53.628;9.950;2023-06-22T00:15:02;9.17;;;3.90;;
26040;SDS011;13816;53.628;9.950;2023-06-22T00:17:30;9.40;;;4.77;;
26040;SDS011;13816;53.628;9.950;2023-06-22T00:19:57;7.90;;;4.30;;
26040;SDS011;13816;53.628;9.950;2023-06-22T00:22:25;9.60;;;4.20;;
26040;SDS011;13816;53.628;9.950;2023-06-22T00:24:55;5.27;;;4.00;;
26040;SDS011;13816;53.628;9.950;2023-06-22T00:27:22;8.70;;;4.03;;
26040;SDS011;13816;53.628;9.950;2023-06-22T00:29:50;4.03;;;3.63;;
26040;SDS011;13816;53.628;9.950;2023-06-22T00:32:18;4.83;;;3.93;;
26040;SDS011;13816;53.628;9.950;2023-06-22T00:34:46;4.30;;;3.90;;
26040;SDS011;13816;53.628;9.950;2023-06-22T00:37:14;3.83;;;3.53;;
26040;SDS011;13816;53.628;9.950;2023-06-22T00:39:45;4.87;;;3.63;;
26040;SDS011;13816;53.628;9.950;2023-06-22T00:42:12;5.77;;;4.37;;
26040;SDS011;13816;53.628;9.950;2023-06-22T00:44:39;4.57;;;4.00;;
26040;SDS011;13816;53.628;9.950;2023-06-22T00:47:07;5.40;;;4.40;;
26040;SDS011;13816;53.628;9.950;2023-06-22T00:49:35;5.20;;;4.40;;
26040;SDS011;13816;53.628;9.950;2023-06-22T00:52:02;5.73;;;4.33;;
26040;SDS011;13816;53.628;9.950;2023-06-22T00:54:30;4.67;;;4.17;;
26040;SDS011;13816;53.628;9.950;2023-06-22T00:56:59;6.37;;;3.67;;
26040;SDS011;13816;53.628;9.950;2023-06-22T00:59:27;4.63;;;4.03;;
26040;SDS011;13816;53.628;9.950;2023-06-22T01:01:54;7.03;;;4.20;;
26040;SDS011;13816;53.628;9.950;2023-06-22T01:04:24;6.53;;;4.07;;
26040;SDS011;13816;53.628;9.950;2023-06-22T01:06:54;8.23;;;4.70;;
26040;SDS011;13816;53.628;9.950;2023-06-22T01:09:26;5.03;;;4.23;;
26040;SDS011;13816;53.628;9.950;2023-06-22T01:11:56;5.53;;;3.83;;
26040;SDS011;13816;53.628;9.950;2023-06-22T01:14:27;6.13;;;4.33;;
26040;SDS011;13816;53.628;9.950;2023-06-22T01:16:55;5.97;;;4.37;;
26040;SDS011;13816;53.628;9.950;2023-06-22T01:21:58;5.17;;;4.00;;
26040;SDS011;13816;53.628;9.950;2023-06-22T01:24:37;8.50;;;4.17;;
26040;SDS011;13816;53.628;9.950;2023-06-22T01:29:57;6.43;;;4.03;;
26040;SDS011;13816;53.628;9.950;2023-06-22T01:32:31;4.53;;;4.00;;
26040;SDS011;13816;53.628;9.950;2023-06-22T01:35:00;4.37;;;3.97;;
26040;SDS011;13816;53.628;9.950;2023-06-22T01:37:30;4.47;;;4.07;;
26040;SDS011;13816;53.628;9.950;2023-06-22T01:39:58;7.80;;;3.73;;
26040;SDS011;13816;53.628;9.950;2023-06-22T01:42:26;6.20;;;5.00;;
26040;SDS011;13816;53.628;9.950;2023-06-22T01:44:54;4.40;;;4.00;;
26040;SDS011;13816;53.628;9.950;2023-06-22T01:47:22;5.97;;;4.70;;
26040;SDS011;13816;53.628;9.950;2023-06-22T01:49:50;6.00;;;4.63;;
26040;SDS011;13816;53.628;9.950;2023-06-22T01:52:21;5.13;;;4.47;;
26040;SDS011;13816;53.628;9.950;2023-06-22T01:54:48;4.97;;;4.47;;
26040;SDS011;13816;53.628;9.950;2023-06-22T01:57:18;4.77;;;4.30;;
26040;SDS011;13816;53.628;9.950;2023-06-22T01:59:59;5.90;;;4.30;;
26040;SDS011;13816;53.628;9.950;2023-06-22T02:02:31;5.70;;;4.60;;
26040;SDS011;13816;53.628;9.950;2023-06-22T02:05:04;6.70;;;4.23;;
26040;SDS011;13816;53.628;9.950;2023-06-22T02:07:34;5.23;;;4.67;;
26040;SDS011;13816;53.628;9.950;2023-06-22T02:10:02;5.70;;;4.47;;
26040;SDS011;13816;53.628;9.950;2023-06-22T02:12:30;7.27;;;5.03;;
26040;SDS011;13816;53.628;9.950;2023-06-22T02:14:59;6.13;;;4.60;;
26040;SDS011;13816;53.628;9.950;2023-06-22T02:17:29;5.23;;;4.73;;
26040;SDS011;13816;53.628;9.950;2023-06-22T02:20:01;5.33;;;4.73;;
26040;SDS011;13816;53.628;9.950;2023-06-22T02:22:30;9.83;;;4.40;;
26040;SDS011;13816;53.628;9.950;2023-06-22T02:24:57;5.67;;;4.50;;
26040;SDS011;13816;53.628;9.950;2023-06-22T02:27:25;5.60;;;4.87;;
26040;SDS011;13816;53.628;9.950;2023-06-22T02:29:52;5.47;;;4.23;;
26040;SDS011;13816;53.628;9.950;2023-06-22T02:32:19;5.63;;;4.23;;
26040;SDS011;13816;53.628;9.950;2023-06-22T02:34:47;5.10;;;4.50;;
26040;SDS011;13816;53.628;9.950;2023-06-22T02:37:15;7.03;;;4.50;;
26040;SDS011;13816;53.628;9.950;2023-06-22T02:39:42;5.13;;;4.63;;
26040;SDS011;13816;53.628;9.950;2023-06-22T02:42:10;10.97;;;4.40;;
26040;SDS011;13816;53.628;9.950;2023-06-22T02:44:37;5.77;;;5.20;;
26040;SDS011;13816;53.628;9.950;2023-06-22T02:47:05;6.40;;;5.47;;
26040;SDS011;13816;53.628;9.950;2023-06-22T02:49:32;8.47;;;5.20;;
26040;SDS011;13816;53.628;9.950;2023-06-22T02:52:00;7.23;;;5.87;;
26040;SDS011;13816;53.628;9.950;2023-06-22T02:54:28;6.70;;;4.80;;
26040;SDS011;13816;53.628;9.950;2023-06-22T02:56:55;5.97;;;5.37;;
26040;SDS011;13816;53.628;9.950;2023-06-22T02:59:23;7.37;;;5.80;;
26040;SDS011;13816;53.628;9.950;2023-06-22T03:01:58;6.97;;;5.83;;
26040;SDS011;13816;53.628;9.950;2023-06-22T03:04:30;7.87;;;6.20;;
26040;SDS011;13816;53.628;9.950;2023-06-22T03:06:58;6.77;;;5.70;;
26040;SDS011;13816;53.628;9.950;2023-06-22T03:09:29;10.27;;;6.97;;
26040;SDS011;13816;53.628;9.950;2023-06-22T03:11:56;9.60;;;6.73;;
26040;SDS011;13816;53.628;9.950;2023-06-22T03:14:30;9.20;;;5.73;;
26040;SDS011;13816;53.628;9.950;2023-06-22T03:16:58;8.03;;;6.33;;
26040;SDS011;13816;53.628;9.950;2023-06-22T03:19:29;11.90;;;7.57;;
26040;SDS011;13816;53.628;9.950;2023-06-22T03:21:59;8.63;;;6.27;;
26040;SDS011;13816;53.628;9.950;2023-06-22T03:24:27;8.30;;;6.03;;
26040;SDS011;13816;53.628;9.950;2023-06-22T03:26:57;6.93;;;6.23;;
26040;SDS011;13816;53.628;9.950;2023-06-22T03:29:24;11.50;;;6.23;;
26040;SDS011;13816;53.628;9.950;2023-06-22T03:31:54;9.83;;;7.13;;
26040;SDS011;13816;53.628;9.950;2023-06-22T03:34:22;10.00;;;6.40;;
26040;SDS011;13816;53.628;9.950;2023-06-22T03:36:51;7.97;;;7.17;;
26040;SDS011;13816;53.628;9.950;2023-06-22T03:39:19;8.23;;;6.73;;
26040;SDS011;13816;53.628;9.950;2023-06-22T03:41:47;10.43;;;6.97;;
26040;SDS011;13816;53.628;9.950;2023-06-22T03:44:14;9.57;;;8.57;;
26040;SDS011;13816;53.628;9.950;2023-06-22T03:46:42;9.27;;;6.33;;
26040;SDS011;13816;53.628;9.950;2023-06-22T03:49:10;8.50;;;6.90;;
26040;SDS011;13816;53.628;9.950;2023-06-22T03:51:38;11.50;;;8.83;;
26040;SDS011;13816;53.628;9.950;2023-06-22T03:54:05;9.70;;;8.20;;
26040;SDS011;13816;53.628;9.950;2023-06-22T03:56:33;10.33;;;7.73;;
26040;SDS011;13816;53.628;9.950;2023-06-22T03:59:00;10.50;;;8.00;;
26040;SDS011;13816;53.628;9.950;2023-06-22T04:01:27;11.07;;;8.73;;
26040;SDS011;13816;53.628;9.950;2023-06-22T04:03:55;12.63;;;8.20;;
26040;SDS011;13816;53.628;9.950;2023-06-22T04:06:22;10.93;;;8.83;;
26040;SDS011;13816;53.628;9.950;2023-06-22T04:08:49;17.60;;;9.10;;
26040;SDS011;13816;53.628;9.950;2023-06-22T04:11:17;12.03;;;8.57;;
26040;SDS011;13816;53.628;9.950;2023-06-22T04:13:45;14.07;;;8.60;;
26040;SDS011;13816;53.628;9.950;2023-06-22T04:16:12;10.57;;;8.70;;
26040;SDS011;13816;53.628;9.950;2023-06-22T04:18:40;10.40;;;8.67;;
26040;SDS011;13816;53.628;9.950;2023-06-22T04:21:08;12.00;;;8.00;;
26040;SDS011;13816;53.628;9.950;2023-06-22T04:23:35;8.03;;;7.23;;
26040;SDS011;13816;53.628;9.950;2023-06-22T04:26:03;10.33;;;8.20;;
26040;SDS011;13816;53.628;9.950;2023-06-22T04:28:30;11.37;;;8.03;;
26040;SDS011;13816;53.628;9.950;2023-06-22T04:31:02;9.53;;;8.20;;
26040;SDS011;13816;53.628;9.950;2023-06-22T04:33:29;10.03;;;8.07;;
26040;SDS011;13816;53.628;9.950;2023-06-22T04:35:57;12.77;;;8.67;;
26040;SDS011;13816;53.628;9.950;2023-06-22T04:38:27;9.80;;;8.33;;
26040;SDS011;13816;53.628;9.950;2023-06-22T04:40:54;13.10;;;8.80;;
26040;SDS011;13816;53.628;9.950;2023-06-22T04:43:22;11.33;;;8.17;;
26040;SDS011;13816;53.628;9.950;2023-06-22T04:45:49;11.37;;;7.50;;
26040;SDS011;13816;53.628;9.950;2023-06-22T04:48:19;8.70;;;7.27;;
26040;SDS011;13816;53.628;9.950;2023-06-22T04:50:46;9.60;;;7.50;;
26040;SDS011;13816;53.628;9.950;2023-06-22T04:53:13;8.30;;;7.30;;
26040;SDS011;13816;53.628;9.950;2023-06-22T04:55:41;10.90;;;7.47;;
26040;SDS011;13816;53.628;9.950;2023-06-22T04:58:12;14.70;;;7.80;;
26040;SDS011;13816;53.628;9.950;2023-06-22T05:00:39;9.70;;;7.73;;
26040;SDS011;13816;53.628;9.950;2023-06-22T05:03:07;13.73;;;7.93;;
26040;SDS011;13816;53.628;9.950;2023-06-22T05:05:43;9.57;;;7.90;;
26040;SDS011;13816;53.628;9.950;2023-06-22T05:08:11;9.87;;;7.20;;
26040;SDS011;13816;53.628;9.950;2023-06-22T05:10:39;14.17;;;8.33;;
26040;SDS011;13816;53.628;9.950;2023-06-22T05:13:20;12.27;;;8.47;;
26040;SDS011;13816;53.628;9.950;2023-06-22T05:15:48;9.27;;;7.73;;
26040;SDS011;13816;53.628;9.950;2023-06-22T05:18:15;9.10;;;8.10;;
26040;SDS011;13816;53.628;9.950;2023-06-22T05:20:43;10.97;;;7.87;;
26040;SDS011;13816;53.628;9.950;2023-06-22T05:23:10;10.20;;;7.50;;
26040;SDS011;13816;53.628;9.950;2023-06-22T05:25:37;12.03;;;7.77;;
26040;SDS011;13816;53.628;9.950;2023-06-22T05:28:05;8.03;;;6.43;;
26040;SDS011;13816;53.628;9.950;2023-06-22T05:30:37;8.20;;;6.47;;
26040;SDS011;13816;53.628;9.950;2023-06-22T05:33:04;12.33;;;6.37;;
26040;SDS011;13816;53.628;9.950;2023-06-22T05:35:32;6.80;;;5.00;;
26040;SDS011;13816;53.628;9.950;2023-06-22T05:37:59;8.00;;;4.50;;
26040;SDS011;13816;53.628;9.950;2023-06-22T05:40:27;11.00;;;6.17;;
26040;SDS011;13816;53.628;9.950;2023-06-22T05:42:54;8.40;;;5.03;;
26040;SDS011;13816;53.628;9.950;2023-06-22T05:45:22;6.77;;;5.10;;
26040;SDS011;13816;53.628;9.950;2023-06-22T05:47:49;6.10;;;4.40;;
26040;SDS011;13816;53.628;9.950;2023-06-22T05:50:17;8.53;;;5.10;;
26040;SDS011;13816;53.628;9.950;2023-06-22T05:52:44;6.10;;;4.20;;
26040;SDS011;13816;53.628;9.950;2023-06-22T05:55:12;4.47;;;3.90;;
26040;SDS011;13816;53.628;9.950;2023-06-22T05:57:39;6.63;;;4.07;;
26040;SDS011;13816;53.628;9.950;2023-06-22T06:00:06;4.40;;;3.87;;
26040;SDS011;13816;53.628;9.950;2023-06-22T06:02:37;5.00;;;3.80;;
26040;SDS011;13816;53.628;9.950;2023-06-22T06:05:10;6.00;;;3.43;;
26040;SDS011;13816;53.628;9.950;2023-06-22T06:07:40;4.50;;;3.40;;
26040;SDS011;13816;53.628;9.950;2023-06-22T06:10:08;14.33;;;4.67;;
26040;SDS011;13816;53.628;9.950;2023-06-22T06:12:36;4.43;;;3.40;;
26040;SDS011;13816;53.628;9.950;2023-06-22T06:15:03;4.73;;;3.73;;
26040;SDS011;13816;53.628;9.950;2023-06-22T06:17:31;6.23;;;3.30;;
26040;SDS011;13816;53.628;9.950;2023-06-22T06:19:59;4.43;;;3.43;;
26040;SDS011;13816;53.628;9.950;2023-06-22T06:22:27;5.23;;;3.30;;
26040;SDS011;13816;53.628;9.950;2023-06-22T06:24:54;5.07;;;3.10;;
26040;SDS011;13816;53.628;9.950;2023-06-22T06:27:22;5.40;;;3.87;;
26040;SDS011;13816;53.628;9.950;2023-06-22T06:29:55;5.17;;;3.50;;
26040;SDS011;13816;53.628;9.950;2023-06-22T06:32:23;6.40;;;3.97;;
26040;SDS011;13816;53.628;9.950;2023-06-22T06:34:50;3.30;;;3.00;;
26040;SDS011;13816;53.628;9.950;2023-06-22T06:37:17;6.83;;;3.40;;
26040;SDS011;13816;53.628;9.950;2023-06-22T06:39:45;6.00;;;4.27;;
26040;SDS011;13816;53.628;9.950;2023-06-22T06:42:12;5.43;;;3.70;;
26040;SDS011;13816;53.628;9.950;2023-06-22T06:44:40;4.83;;;3.70;;
26040;SDS011;13816;53.628;9.950;2023-06-22T06:47:08;8.40;;;3.80;;
26040;SDS011;13816;53.628;9.950;2023-06-22T06:49:35;7.87;;;3.60;;
26040;SDS011;13816;53.628;9.950;2023-06-22T06:52:03;5.30;;;3.10;;
26040;SDS011;13816;53.628;9.950;2023-06-22T06:54:30;7.20;;;3.97;;
26040;SDS011;13816;53.628;9.950;2023-06-22T06:56:58;5.17;;;3.57;;
26040;SDS011;13816;53.628;9.950;2023-06-22T06:59:25;6.40;;;3.20;;
26040;SDS011;13816;53.628;9.950;2023-06-22T07:01:53;3.80;;;3.33;;
26040;SDS011;13816;53.628;9.950;2023-06-22T07:04:20;5.43;;;3.30;;
26040;SDS011;13816;53.628;9.950;2023-06-22T07:06:47;6.00;;;3.60;;
26040;SDS011;13816;53.628;9.950;2023-06-22T07:09:15;5.83;;;3.33;;
26040;SDS011;13816;53.628;9.950;2023-06-22T07:11:42;6.30;;;3.37;;
26040;SDS011;13816;53.628;9.950;2023-06-22T07:14:10;3.43;;;3.13;;
26040;SDS011;13816;53.628;9.950;2023-06-22T07:16:37;4.63;;;3.20;;
26040;SDS011;13816;53.628;9.950;2023-06-22T07:19:05;3.70;;;3.30;;
26040;SDS011;13816;53.628;9.950;2023-06-22T07:21:34;7.13;;;4.00;;
26040;SDS011;13816;53.628;9.950;2023-06-22T07:24:02;3.70;;;2.80;;
26040;SDS011;13816;53.628;9.950;2023-06-22T07:26:29;4.87;;;3.70;;
26040;SDS011;13816;53.628;9.950;2023-06-22T07:28:57;4.33;;;3.20;;
26040;SDS011;13816;53.628;9.950;2023-06-22T07:31:24;6.43;;;4.13;;
26040;SDS011;13816;53.628;9.950;2023-06-22T07:33:52;3.93;;;3.40;;
26040;SDS011;13816;53.628;9.950;2023-06-22T07:36:19;4.70;;;3.67;;
26040;SDS011;13816;53.628;9.950;2023-06-22T07:38:47;4.40;;;3.10;;
26040;SDS011;13816;53.628;9.950;2023-06-22T07:41:14;4.27;;;3.20;;
26040;SDS011;13816;53.628;9.950;2023-06-22T07:43:42;7.13;;;3.17;;
26040;SDS011;13816;53.628;9.950;2023-06-22T07:46:10;3.50;;;2.80;;
26040;SDS011;13816;53.628;9.950;2023-06-22T07:48:37;6.90;;;3.23;;
26040;SDS011;13816;53.628;9.950;2023-06-22T07:51:05;4.77;;;3.53;;
26040;SDS011;13816;53.628;9.950;2023-06-22T07:53:33;6.07;;;3.10;;
26040;SDS011;13816;53.628;9.950;2023-06-22T07:56:02;4.20;;;3.23;;
26040;SDS011;13816;53.628;9.950;2023-06-22T07:58:33;3.90;;;3.40;;
26040;SDS011;13816;53.628;9.950;2023-06-22T08:01:01;4.57;;;3.50;;
26040;SDS011;13816;53.628;9.950;2023-06-22T08:03:29;4.40;;;3.03;;
26040;SDS011;13816;53.628;9.950;2023-06-22T08:05:57;8.47;;;3.00;;
26040;SDS011;13816;53.628;9.950;2023-06-22T08:08:24;6.63;;;3.90;;
26040;SDS011;13816;53.628;9.950;2023-06-22T08:10:52;7.33;;;3.10;;
26040;SDS011;13816;53.628;9.950;2023-06-22T08:13:19;4.83;;;2.83;;
26040;SDS011;13816;53.628;9.950;2023-06-22T08:15:47;3.53;;;2.70;;
26040;SDS011;13816;53.628;9.950;2023-06-22T08:18:15;3.77;;;3.00;;
26040;SDS011;13816;53.628;9.950;2023-06-22T08:20:43;3.60;;;2.80;;
26040;SDS011;13816;53.628;9.950;2023-06-22T08:23:10;5.03;;;2.93;;
26040;SDS011;13816;53.628;9.950;2023-06-22T08:25:38;7.60;;;3.10;;
26040;SDS011;13816;53.628;9.950;2023-06-22T08:28:05;7.03;;;3.60;;
26040;SDS011;13816;53.628;9.950;2023-06-22T08:30:33;5.53;;;3.60;;
26040;SDS011;13816;53.628;9.950;2023-06-22T08:33:01;4.90;;;3.20;;
26040;SDS011;13816;53.628;9.950;2023-06-22T08:35:29;4.23;;;3.00;;
26040;SDS011;13816;53.628;9.950;2023-06-22T08:37:57;4.33;;;3.20;;
26040;SDS011;13816;53.628;9.950;2023-06-22T08:40:26;3.90;;;2.57;;
26040;SDS011;13816;53.628;9.950;2023-06-22T08:42:54;3.60;;;2.87;;
26040;SDS011;13816;53.628;9.950;2023-06-22T08:45:21;7.27;;;3.17;;
26040;SDS011;13816;53.628;9.950;2023-06-22T08:47:49;4.07;;;3.00;;
26040;SDS011;13816;53.628;9.950;2023-06-22T08:50:16;4.83;;;3.30;;
26040;SDS011;13816;53.628;9.950;2023-06-22T08:52:44;5.90;;;2.77;;
26040;SDS011;13816;53.628;9.950;2023-06-22T08:55:12;4.50;;;2.87;;
26040;SDS011;13816;53.628;9.950;2023-06-22T08:57:40;4.90;;;3.20;;
26040;SDS011;13816;53.628;9.950;2023-06-22T09:00:09;5.23;;;3.20;;
26040;SDS011;13816;53.628;9.950;2023-06-22T09:02:47;5.10;;;3.40;;
26040;SDS011;13816;53.628;9.950;2023-06-22T09:05:15;3.20;;;2.90;;
26040;SDS011;13816;53.628;9.950;2023-06-22T09:07:42;4.00;;;3.43;;
26040;SDS011;13816;53.628;9.950;2023-06-22T09:10:10;6.47;;;2.90;;
26040;SDS011;13816;53.628;9.950;2023-06-22T09:12:38;4.20;;;3.07;;
26040;SDS011;13816;53.628;9.950;2023-06-22T09:15:09;4.70;;;2.57;;
26040;SDS011;13816;53.628;9.950;2023-06-22T09:17:41;3.20;;;2.20;;
26040;SDS011;13816;53.628;9.950;2023-06-22T09:20:09;2.83;;;2.30;;
26040;SDS011;13816;53.628;9.950;2023-06-22T09:22:37;11.43;;;3.73;;
26040;SDS011;13816;53.628;9.950;2023-06-22T09:25:05;4.63;;;2.87;;
26040;SDS011;13816;53.628;9.950;2023-06-22T09:27:33;2.93;;;2.50;;
26040;SDS011;13816;53.628;9.950;2023-06-22T09:30:01;10.07;;;3.30;;
26040;SDS011;13816;53.628;9.950;2023-06-22T09:32:30;5.97;;;2.70;;
26040;SDS011;13816;53.628;9.950;2023-06-22T09:34:57;7.20;;;2.77;;
26040;SDS011;13816;53.628;9.950;2023-06-22T09:37:25;3.47;;;2.57;;
26040;SDS011;13816;53.628;9.950;2023-06-22T09:39:52;4.47;;;3.03;;
26040;SDS011;13816;53.628;9.950;2023-06-22T09:42:20;2.87;;;2.67;;
26040;SDS011;13816;53.628;9.950;2023-06-22T09:44:47;4.70;;;3.37;;
26040;SDS011;13816;53.628;9.950;2023-06-22T09:47:15;4.03;;;3.17;;
26040;SDS011;13816;53.628;9.950;2023-06-22T09:49:42;5.63;;;3.10;;
26040;SDS011;13816;53.628;9.950;2023-06-22T09:52:14;6.10;;;3.63;;
26040;SDS011;13816;53.628;9.950;2023-06-22T09:54:41;4.90;;;2.80;;
26040;SDS011;13816;53.628;9.950;2023-06-22T09:57:09;5.53;;;3.37;;
26040;SDS011;13816;53.628;9.950;2023-06-22T09:59:36;3.10;;;2.73;;
26040;SDS011;13816;53.628;9.950;2023-06-22T10:02:04;5.23;;;2.93;;
26040;SDS011;13816;53.628;9.950;2023-06-22T10:04:31;18.83;;;3.10;;
26040;SDS011;13816;53.628;9.950;2023-06-22T10:06:59;3.97;;;3.13;;
26040;SDS011;13816;53.628;9.950;2023-06-22T10:09:27;5.73;;;3.20;;
26040;SDS011;13816;53.628;9.950;2023-06-22T10:11:54;8.60;;;2.90;;
26040;SDS011;13816;53.628;9.950;2023-06-22T10:14:21;5.10;;;2.67;;
26040;SDS011;13816;53.628;9.950;2023-06-22T10:16:52;3.37;;;3.07;;
26040;SDS011;13816;53.628;9.950;2023-06-22T10:19:19;5.07;;;3.10;;
26040;SDS011;13816;53.628;9.950;2023-06-22T10:21:47;6.40;;;3.17;;
26040;SDS011;13816;53.628;9.950;2023-06-22T10:24:14;6.33;;;3.10;;
26040;SDS011;13816;53.628;9.950;2023-06-22T10:26:42;6.50;;;3.07;;
26040;SDS011;13816;53.628;9.950;2023-06-22T10:29:09;3.50;;;2.67;;
26040;SDS011;13816;53.628;9.950;2023-06-22T10:31:42;3.80;;;3.07;;
26040;SDS011;13816;53.628;9.950;2023-06-22T10:34:10;4.17;;;3.00;;
26040;SDS011;13816;53.628;9.950;2023-06-22T10:36:38;4.33;;;3.20;;
26040;SDS011;13816;53.628;9.950;2023-06-22T10:39:06;6.20;;;3.37;;
26040;SDS011;13816;53.628;9.950;2023-06-22T10:41:33;5.47;;;3.20;;
26040;SDS011;13816;53.628;9.950;2023-06-22T10:44:01;4.97;;;3.40;;
26040;SDS011;13816;53.628;9.950;2023-06-22T10:46:28;5.07;;;3.00;;
26040;SDS011;13816;53.628;9.950;2023-06-22T10:48:56;6.27;;;3.13;;
26040;SDS011;13816;53.628;9.950;2023-06-22T10:51:25;5.00;;;2.87;;
26040;SDS011;13816;53.628;9.950;2023-06-22T10:53:54;6.20;;;3.30;;
26040;SDS011;13816;53.628;9.950;2023-06-22T10:56:22;4.90;;;2.97;;
26040;SDS011;13816;53.628;9.950;2023-06-22T10:58:49;4.93;;;2.80;;
26040;SDS011;13816;53.628;9.950;2023-06-22T11:01:17;4.10;;;3.17;;
26040;SDS011;13816;53.628;9.950;2023-06-22T11:04:00;4.13;;;2.93;;
26040;SDS011;13816;53.628;9.950;2023-06-22T11:06:28;2.90;;;2.67;;
26040;SDS011;13816;53.628;9.950;2023-06-22T11:08:55;4.43;;;2.87;;
26040;SDS011;13816;53.628;9.950;2023-06-22T11:11:32;3.33;;;2.97;;
26040;SDS011;13816;53.628;9.950;2023-06-22T11:13:59;3.47;;;3.13;;
26040;SDS011;13816;53.628;9.950;2023-06-22T11:16:27;4.07;;;3.70;;
26040;SDS011;13816;53.628;9.950;2023-06-22T11:18:54;4.10;;;3.47;;
26040;SDS011;13816;53.628;9.950;2023-06-22T11:21:22;5.70;;;3.47;;
26040;SDS011;13816;53.628;9.950;2023-06-22T11:23:49;6.03;;;3.50;;
26040;SDS011;13816;53.628;9.950;2023-06-22T11:26:17;4.80;;;3.83;;
26040;SDS011;13816;53.628;9.950;2023-06-22T11:28:44;6.53;;;3.90;;
26040;SDS011;13816;53.628;9.950;2023-06-22T11:31:12;4.23;;;3.50;;
26040;SDS011;13816;53.628;9.950;2023-06-22T11:33:51;4.50;;;3.40;;
26040;SDS011;13816;53.628;9.950;2023-06-22T11:36:18;10.03;;;3.70;;
26040;SDS011;13816;53.628;9.950;2023-06-22T11:38:46;5.27;;;3.20;;
26040;SDS011;13816;53.628;9.950;2023-06-22T11:41:13;3.87;;;3.50;;
26040;SDS011;13816;53.628;9.950;2023-06-22T11:43:41;4.00;;;3.60;;
26040;SDS011;13816;53.628;9.950;2023-06-22T11:46:09;4.63;;;3.10;;
26040;SDS011;13816;53.628;9.950;2023-06-22T11:48:36;4.30;;;3.27;;
26040;SDS011;13816;53.628;9.950;2023-06-22T11:51:04;6.63;;;3.17;;
26040;SDS011;13816;53.628;9.950;2023-06-22T11:53:33;6.70;;;3.20;;
26040;SDS011;13816;53.628;9.950;2023-06-22T11:56:00;3.07;;;2.77;;
26040;SDS011;13816;53.628;9.950;2023-06-22T11:58:28;8.47;;;3.63;;
26040;SDS011;13816;53.628;9.950;2023-06-22T12:00:55;4.20;;;3.63;;
26040;SDS011;13816;53.628;9.950;2023-06-22T12:03:23;3.30;;;3.00;;
26040;SDS011;13816;53.628;9.950;2023-06-22T12:05:50;3.90;;;3.13;;
26040;SDS011;13816;53.628;9.950;2023-06-22T12:08:21;3.30;;;3.10;;
26040;SDS011;13816;53.628;9.950;2023-06-22T12:10:49;3.60;;;3.30;;
26040;SDS011;13816;53.628;9.950;2023-06-22T12:13:17;8.30;;;3.30;;
26040;SDS011;13816;53.628;9.950;2023-06-22T12:15:44;6.63;;;3.10;;
26040;SDS011;13816;53.628;9.950;2023-06-22T12:18:12;8.53;;;3.57;;
26040;SDS011;13816;53.628;9.950;2023-06-22T12:20:41;5.13;;;3.40;;
26040;SDS011;13816;53.628;9.950;2023-06-22T12:23:09;6.03;;;3.73;;
26040;SDS011;13816;53.628;9.950;2023-06-22T12:25:37;12.73;;;3.83;;
26040;SDS011;13816;53.628;9.950;2023-06-22T12:28:04;5.67;;;3.70;;
26040;SDS011;13816;53.628;9.950;2023-06-22T12:30:35;5.70;;;4.27;;
26040;SDS011;13816;53.628;9.950;2023-06-22T12:33:02;4.93;;;3.60;;
26040;SDS011;13816;53.628;9.950;2023-06-22T12:35:30;4.60;;;4.20;;
26040;SDS011;13816;53.628;9.950;2023-06-22T12:37:58;6.87;;;3.67;;
26040;SDS011;13816;53.628;9.950;2023-06-22T12:40:25;4.20;;;3.70;;
26040;SDS011;13816;53.628;9.950;2023-06-22T12:42:53;8.17;;;4.50;;
26040;SDS011;13816;53.628;9.950;2023-06-22T12:45:20;4.33;;;3.93;;
26040;SDS011;13816;53.628;9.950;2023-06-22T12:47:48;4.30;;;3.90;;
26040;SDS011;13816;53.628;9.950;2023-06-22T12:50:16;6.63;;;4.70;;
26040;SDS011;13816;53.628;9.950;2023-06-22T12:52:44;4.60;;;4.17;;
26040;SDS011;13816;53.628;9.950;2023-06-22T12:55:12;4.57;;;4.17;;
26040;SDS011;13816;53.628;9.950;2023-06-22T12:57:39;5.17;;;4.07;;
26040;SDS011;13816;53.628;9.950;2023-06-22T13:00:07;6.13;;;4.00;;
26040;SDS011;13816;53.628;9.950;2023-06-22T13:02:36;6.00;;;4.50;;
26040;SDS011;13816;53.628;9.950;2023-06-22T13:05:04;3.93;;;3.53;;
26040;SDS011;13816;53.628;9.950;2023-06-22T13:07:32;5.03;;;4.63;;
26040;SDS011;13816;53.628;9.950;2023-06-22T13:09:59;4.93;;;4.43;;
26040;SDS011;13816;53.628;9.950;2023-06-22T13:12:27;4.47;;;4.03;;
26040;SDS011;13816;53.628;9.950;2023-06-22T13:14:55;4.67;;;4.27;;
26040;SDS011;13816;53.628;9.950;2023-06-22T13:17:22;5.60;;;4.80;;
26040;SDS011;13816;53.628;9.950;2023-06-22T13:19:50;4.47;;;4.07;;
26040;SDS011;13816;53.628;9.950;2023-06-22T13:22:30;8.33;;;4.60;;
26040;SDS011;13816;53.628;9.950;2023-06-22T13:24:59;5.77;;;5.17;;
26040;SDS011;13816;53.628;9.950;2023-06-22T13:27:27;4.43;;;4.03;;
26040;SDS011;13816;53.628;9.950;2023-06-22T13:29:55;4.53;;;4.20;;
26040;SDS011;13816;53.628;9.950;2023-06-22T13:32:22;4.80;;;4.30;;
26040;SDS011;13816;53.628;9.950;2023-06-22T13:34:50;5.87;;;4.90;;
26040;SDS011;13816;53.628;9.950;2023-06-22T13:37:18;5.87;;;4.80;;
26040;SDS011;13816;53.628;9.950;2023-06-22T13:39:46;5.63;;;4.17;;
26040;SDS011;13816;53.628;9.950;2023-06-22T13:42:13;12.90;;;4.57;;
26040;SDS011;13816;53.628;9.950;2023-06-22T13:44:40;6.60;;;4.50;;
26040;SDS011;13816;53.628;9.950;2023-06-22T13:47:08;5.10;;;4.70;;
26040;SDS011;13816;53.628;9.950;2023-06-22T13:49:38;6.57;;;4.60;;
26040;SDS011;13816;53.628;9.950;2023-06-22T13:52:21;6.10;;;5.07;;
26040;SDS011;13816;53.628;9.950;2023-06-22T13:54:49;7.97;;;5.30;;
26040;SDS011;13816;53.628;9.950;2023-06-22T13:57:17;6.00;;;5.40;;
26040;SDS011;13816;53.628;9.950;2023-06-22T13:59:44;5.70;;;5.10;;
26040;SDS011;13816;53.628;9.950;2023-06-22T14:02:13;6.73;;;4.20;;
26040;SDS011;13816;53.628;9.950;2023-06-22T14:04:44;4.43;;;4.03;;
26040;SDS011;13816;53.628;9.950;2023-06-22T14:07:12;9.70;;;5.10;;
26040;SDS011;13816;53.628;9.950;2023-06-22T14:09:43;9.00;;;4.30;;
26040;SDS011;13816;53.628;9.950;2023-06-22T14:12:11;5.37;;;4.87;;
26040;SDS011;13816;53.628;9.950;2023-06-22T14:14:39;5.20;;;4.70;;
26040;SDS011;13816;53.628;9.950;2023-06-22T14:17:07;4.87;;;4.37;;
26040;SDS011;13816;53.628;9.950;2023-06-22T14:19:35;5.20;;;4.80;;
26040;SDS011;13816;53.628;9.950;2023-06-22T14:22:06;5.07;;;4.60;;
26040;SDS011;13816;53.628;9.950;2023-06-22T14:24:33;4.93;;;4.10;;
26040;SDS011;13816;53.628;9.950;2023-06-22T14:27:01;9.93;;;4.60;;
26040;SDS011;13816;53.628;9.950;2023-06-22T14:29:31;5.90;;;4.50;;
26040;SDS011;13816;53.628;9.950;2023-06-22T14:31:59;6.93;;;4.10;;
26040;SDS011;13816;53.628;9.950;2023-06-22T14:34:27;8.93;;;4.57;;
26040;SDS011;13816;53.628;9.950;2023-06-22T14:36:54;4.23;;;3.80;;
26040;SDS011;13816;53.628;9.950;2023-06-22T14:39:22;5.70;;;3.97;;
26040;SDS011;13816;53.628;9.950;2023-06-22T14:41:49;4.50;;;3.87;;
26040;SDS011;13816;53.628;9.950;2023-06-22T14:44:17;7.20;;;4.90;;
26040;SDS011;13816;53.628;9.950;2023-06-22T14:46:44;5.87;;;4.37;;
26040;SDS011;13816;53.628;9.950;2023-06-22T14:49:12;6.87;;;4.47;;
26040;SDS011;13816;53.628;9.950;2023-06-22T14:51:39;6.67;;;4.80;;
26040;SDS011;13816;53.628;9.950;2023-06-22T14:54:07;7.37;;;4.83;;
26040;SDS011;13816;53.628;9.950;2023-06-22T14:56:35;5.20;;;4.40;;